TimeEDT,TemperatureF,Dew PointF,Humidity,Sea Level PressureIn,VisibilityMPH,Wind Direction,Wind SpeedMPH,Gust SpeedMPH,PrecipitationIn,Events,Conditions,WindDirDegrees,DateUTC
12:54 AM,53.1,39.9,61,30.31,10.0,Variable,3.5,-,N/A,,Overcast,0,2008-04-03 04:54:00
1:54 AM,52.0,43.0,71,30.30,10.0,Calm,Calm,-,N/A,,Overcast,0,2008-04-03 05:54:00
2:54 AM,52.0,39.9,63,30.30,10.0,Calm,Calm,-,N/A,,Overcast,0,2008-04-03 06:54:00
3:35 AM,51.8,39.2,62,30.32,10.0,SE,5.8,-,N/A,,Overcast,140,2008-04-03 07:35:00
3:54 AM,52.0,39.9,63,30.28,10.0,SE,9.2,-,N/A,,Overcast,140,2008-04-03 07:54:00
4:54 AM,50.0,39.0,66,30.29,10.0,SE,4.6,-,N/A,,Overcast,140,2008-04-03 08:54:00
5:54 AM,48.9,41.0,74,30.30,10.0,ESE,3.5,-,N/A,,Overcast,120,2008-04-03 09:54:00
6:54 AM,48.0,42.1,80,30.30,10.0,SE,5.8,-,N/A,,Overcast,140,2008-04-03 10:54:00
7:54 AM,48.0,39.9,74,30.30,10.0,SSE,8.1,-,N/A,,Overcast,160,2008-04-03 11:54:00
8:54 AM,48.0,37.9,68,30.32,10.0,SE,5.8,-,N/A,,Overcast,130,2008-04-03 12:54:00
9:54 AM,46.9,42.1,83,30.33,9.0,SSE,8.1,-,0.02,,Overcast,150,2008-04-03 13:54:00
10:46 AM,46.4,42.8,87,30.35,4.0,SSE,9.2,18.4,N/A,,Overcast,160,2008-04-03 14:46:00
10:54 AM,46.0,43.0,89,30.34,2.5,SSE,10.4,-,N/A,,Overcast,160,2008-04-03 14:54:00
11:01 AM,44.6,44.6,100,30.34,2.5,SSE,9.2,-,N/A,,Overcast,160,2008-04-03 15:01:00
11:20 AM,44.6,42.8,93,30.34,3.0,ESE,5.8,-,N/A,,Overcast,120,2008-04-03 15:20:00
11:47 AM,46.4,41.0,81,30.34,10.0,SSE,9.2,-,N/A,,Overcast,150,2008-04-03 15:47:00
11:54 AM,46.0,39.9,79,30.32,10.0,SE,8.1,-,N/A,,Overcast,130,2008-04-03 15:54:00
12:54 PM,46.0,39.0,76,30.29,10.0,SSE,5.8,-,N/A,,Overcast,150,2008-04-03 16:54:00
1:54 PM,44.1,41.0,89,30.28,7.0,South,6.9,-,0.01,Rain,Light Rain,170,2008-04-03 17:54:00
2:01 PM,44.6,42.8,93,30.28,8.0,South,6.9,-,0.00,,Overcast,180,2008-04-03 18:01:00
2:08 PM,44.6,42.8,93,30.27,6.0,South,9.2,-,0.00,,Overcast,180,2008-04-03 18:08:00
2:26 PM,44.6,42.8,93,30.29,6.0,SSW,10.4,-,0.00,,Overcast,200,2008-04-03 18:26:00
2:33 PM,44.6,42.8,93,30.28,5.0,Variable,5.8,-,0.00,Rain,Light Rain,0,2008-04-03 18:33:00
2:52 PM,44.6,42.8,93,30.27,4.0,South,6.9,-,0.02,Rain,Rain,180,2008-04-03 18:52:00
2:54 PM,44.1,42.1,93,30.26,4.0,South,9.2,-,0.03,Rain,Rain,190,2008-04-03 18:54:00
3:33 PM,44.6,42.8,93,30.23,2.5,SSE,8.1,-,0.00,Rain,Light Rain,160,2008-04-03 19:33:00
3:42 PM,44.6,42.8,93,30.22,4.0,South,10.4,-,0.00,Rain,Light Rain,170,2008-04-03 19:42:00
3:49 PM,44.6,42.8,93,30.22,2.5,South,9.2,-,0.01,Rain,Light Rain,170,2008-04-03 19:49:00
3:54 PM,43.0,42.1,97,30.22,2.5,South,10.4,-,0.01,Rain,Light Rain,170,2008-04-03 19:54:00
4:01 PM,42.8,42.8,100,30.23,4.0,South,10.4,-,0.00,Rain,Light Rain,170,2008-04-03 20:01:00
4:11 PM,42.8,41.0,93,30.23,2.5,South,8.1,-,0.04,Rain,Rain,170,2008-04-03 20:11:00
4:14 PM,42.8,42.8,100,30.22,3.0,SSE,8.1,-,0.04,Rain,Rain,160,2008-04-03 20:14:00
4:21 PM,42.8,42.8,100,30.23,2.5,South,10.4,-,0.05,Rain,Light Rain,170,2008-04-03 20:21:00
4:29 PM,42.8,42.8,100,30.22,2.5,SSE,5.8,-,0.05,Rain,Light Rain,150,2008-04-03 20:29:00
4:43 PM,42.8,42.8,100,30.22,2.5,SE,5.8,-,N/A,,Overcast,140,2008-04-03 20:43:00
5:54 PM,42.1,41.0,96,30.19,2.5,SE,8.1,-,0.04,Rain,Light Rain,140,2008-04-03 21:54:00
6:03 PM,42.8,41.0,93,30.20,2.5,SE,10.4,-,0.00,,Overcast,140,2008-04-03 22:03:00
6:15 PM,42.8,41.0,93,30.21,2.5,ESE,5.8,-,0.00,,Overcast,120,2008-04-03 22:15:00
6:49 PM,42.8,41.0,93,30.21,2.5,SE,5.8,-,0.00,,Overcast,140,2008-04-03 22:49:00
6:54 PM,42.1,41.0,96,30.21,2.5,Variable,4.6,-,0.00,,Overcast,0,2008-04-03 22:54:00
7:54 PM,42.1,41.0,96,30.20,2.5,South,8.1,-,0.00,Rain,Light Rain,170,2008-04-03 23:54:00
8:54 PM,41.0,41.0,100,30.20,2.5,South,5.8,-,0.01,Rain,Light Rain,170,2008-04-04 00:54:00
9:54 PM,41.0,41.0,100,30.19,2.5,SSE,5.8,-,0.00,,Overcast,160,2008-04-04 01:54:00
10:54 PM,41.0,41.0,100,30.19,2.5,SSE,6.9,-,0.00,,Overcast,160,2008-04-04 02:54:00
11:01 PM,41.0,41.0,100,30.18,3.0,SSE,6.9,-,N/A,,Overcast,160,2008-04-04 03:01:00
11:23 PM,41.0,41.0,100,30.17,2.5,South,6.9,-,N/A,,Overcast,170,2008-04-04 03:23:00
11:54 PM,41.0,41.0,100,30.15,2.5,South,6.9,-,N/A,,Overcast,170,2008-04-04 03:54:00